createdAt,value
2018-05-25T07:29:53.192Z,19
2018-05-25T07:30:43.801Z,19.1
2018-05-25T07:31:33.048Z,19.1
2018-05-25T07:32:23.994Z,19
2018-05-25T07:33:13.803Z,19
2018-05-25T07:34:03.798Z,19.1
2018-05-25T07:34:53.601Z,19
2018-05-25T07:35:43.271Z,19
2018-05-25T07:36:34.590Z,19
2018-05-25T07:37:22.959Z,19.1
2018-05-25T07:38:13.862Z,19.1
2018-05-25T07:39:03.697Z,19
2018-05-25T07:39:54.294Z,19.1
2018-05-25T07:40:44.073Z,19
2018-05-25T07:41:34.171Z,19
2018-05-25T07:42:24.198Z,19.1
2018-05-25T07:43:14.299Z,19.1
2018-05-25T07:44:04.919Z,19.1
2018-05-25T07:44:54.989Z,19.1
2018-05-25T07:45:43.933Z,19.1
2018-05-25T07:46:35.134Z,19.1
2018-05-25T07:47:25.250Z,19.1
2018-05-25T07:48:15.017Z,19.1
2018-05-25T07:49:04.765Z,19.1
2018-05-25T07:49:54.472Z,19.1
2018-05-25T07:50:44.555Z,19
2018-05-25T07:51:34.877Z,19.1
2018-05-25T07:52:25.492Z,19.1
2018-05-25T07:53:15.604Z,19.1
2018-05-25T07:54:05.664Z,19.1
2018-05-25T07:54:55.987Z,19.1
2018-05-25T07:55:45.453Z,19.1
2018-05-25T07:56:35.839Z,19.1
2018-05-25T07:57:25.590Z,19
2018-05-25T07:58:16.271Z,19.1
2018-05-25T07:59:06.331Z,19.1
2018-05-25T07:59:56.391Z,19.1
2018-05-25T08:00:45.417Z,19.1
2018-05-25T08:01:36.479Z,19.1
2018-05-25T08:02:25.422Z,19.1
2018-05-25T08:03:16.671Z,19.1
2018-05-25T08:04:05.911Z,19.1
2018-05-25T08:04:56.189Z,19.1
2018-05-25T08:05:46.574Z,19.1
2018-05-25T08:06:36.913Z,19.1
2018-05-25T08:07:26.403Z,19.1
2018-05-25T08:08:16.756Z,19.1
2018-05-25T08:09:06.805Z,19.1
2018-05-25T08:09:56.293Z,19.1
2018-05-25T08:10:46.145Z,19.1
2018-05-25T08:11:36.701Z,19.1
2018-05-25T08:12:26.555Z,19.1
2018-05-25T08:13:17.429Z,19.1
2018-05-25T08:14:06.358Z,19.1
2018-05-25T08:14:57.011Z,19.1
2018-05-25T08:15:46.830Z,19.1
2018-05-25T08:16:36.546Z,19.1
2018-05-25T08:17:26.329Z,19.1
2018-05-25T08:18:16.985Z,19.1
2018-05-25T08:19:07.339Z,19.1
2018-05-25T08:19:56.817Z,19.1
2018-05-25T08:20:47.465Z,19.1
2018-05-25T08:21:37.223Z,19.1
2018-05-25T08:22:26.826Z,19.1
2018-05-25T08:23:17.114Z,19.1
2018-05-25T08:24:08.037Z,19.1
2018-05-25T08:24:57.774Z,19.1
2018-05-25T08:25:47.631Z,19.1
2018-05-25T08:26:37.652Z,19.1
2018-05-25T08:27:27.410Z,19.1
2018-05-25T08:28:18.085Z,19.1
2018-05-25T08:29:08.361Z,19.1
2018-05-25T08:29:57.368Z,19.1
2018-05-25T08:30:48.208Z,19.1
2018-05-25T08:31:37.244Z,19.1
2018-05-25T08:32:27.815Z,19.1
2018-05-25T08:33:18.112Z,19.1
2018-05-25T08:34:08.524Z,19.1
2018-05-25T08:34:58.520Z,19.1
2018-05-25T08:35:48.593Z,19.1
2018-05-25T08:36:38.483Z,19.1
2018-05-25T08:37:28.477Z,19.1
2018-05-25T08:38:19.109Z,19.1
2018-05-25T08:39:09.176Z,19.1
2018-05-25T08:39:58.739Z,19.1
2018-05-25T08:40:48.712Z,19.1
2018-05-25T08:41:39.024Z,19.1
2018-05-25T08:42:29.347Z,19.1
2018-05-25T08:43:20.061Z,19.1
2018-05-25T08:44:09.330Z,19.1
2018-05-25T08:44:59.336Z,19.1
2018-05-25T08:45:48.500Z,19.1
2018-05-25T08:46:40.046Z,19.1
2018-05-25T08:47:29.815Z,19.1
2018-05-25T08:48:18.921Z,19.1
2018-05-25T08:49:10.333Z,19.1
2018-05-25T08:49:59.244Z,19.1
2018-05-25T08:50:50.127Z,19.1
2018-05-25T08:51:40.136Z,19.1
2018-05-25T08:52:29.709Z,19.1
2018-05-25T08:53:18.951Z,19.1
2018-05-25T08:54:10.510Z,19.1
2018-05-25T08:55:00.156Z,19.1
2018-05-25T08:55:49.375Z,19.1
2018-05-25T08:56:39.696Z,19.1
2018-05-25T08:57:29.746Z,19.1
2018-05-25T08:58:20.617Z,19.1
2018-05-25T08:59:10.433Z,19.1
2018-05-25T09:00:00.308Z,19.1
2018-05-25T09:00:50.082Z,19.1
2018-05-25T09:01:40.114Z,19.1
2018-05-25T09:02:30.706Z,19.1
2018-05-25T09:03:20.483Z,19.1
2018-05-25T09:04:10.896Z,19.1
2018-05-25T09:05:00.612Z,19.1
2018-05-25T09:05:51.460Z,19.1
2018-05-25T09:06:41.351Z,19.1
2018-05-25T09:07:31.788Z,19.1
2018-05-25T09:08:21.481Z,19.1
2018-05-25T09:09:11.340Z,19.1
2018-05-25T09:10:01.014Z,19.1
2018-05-25T09:10:50.787Z,19.1
2018-05-25T09:11:41.754Z,19.1
2018-05-25T09:12:31.941Z,19.1
2018-05-25T09:13:22.146Z,19.1
2018-05-25T09:14:11.374Z,19.1
2018-05-25T09:15:01.479Z,19.1
2018-05-25T09:15:51.689Z,19.1
2018-05-25T09:16:41.014Z,19.1
2018-05-25T09:17:31.931Z,19.1
2018-05-25T09:18:21.094Z,19.1
2018-05-25T09:19:12.014Z,19.1
2018-05-25T09:20:01.486Z,19.1
2018-05-25T09:20:52.102Z,19.1
2018-05-25T09:21:43.175Z,19.1
2018-05-25T09:22:32.262Z,19.1
2018-05-25T09:23:22.301Z,19.1
2018-05-25T09:24:12.371Z,19.1
2018-05-25T09:25:02.201Z,19.1
2018-05-25T09:25:52.527Z,19.1
2018-05-25T09:26:43.081Z,19.1
2018-05-25T09:27:31.531Z,19.1
2018-05-25T09:28:23.328Z,19.1
2018-05-25T09:29:11.966Z,19.1
2018-05-25T09:30:02.128Z,19.1
2018-05-25T09:30:53.608Z,19.1
2018-05-25T09:31:42.385Z,19.1
2018-05-25T09:32:33.562Z,19.1
2018-05-25T09:33:22.627Z,19.1
2018-05-25T09:34:13.192Z,19.1
2018-05-25T09:35:02.941Z,19.1
2018-05-25T09:35:53.027Z,19.1
2018-05-25T09:36:43.070Z,19.1
2018-05-25T09:37:33.133Z,19.1
2018-05-25T09:38:23.524Z,19.1
2018-05-25T09:39:13.292Z,19.1
2018-05-25T09:40:03.894Z,19.1
2018-05-25T09:40:54.235Z,19.1
2018-05-25T09:41:43.483Z,19.1
2018-05-25T09:42:34.396Z,19.1
2018-05-25T09:43:24.228Z,19.1
2018-05-25T09:44:14.197Z,19.1
2018-05-25T09:45:04.115Z,19.1
2018-05-25T09:45:53.773Z,19.1
2018-05-25T09:46:44.675Z,19.1
2018-05-25T09:47:34.226Z,19.1
2018-05-25T09:48:24.512Z,19.1
2018-05-25T09:49:14.049Z,19.1
2018-05-25T09:50:03.822Z,19.1
2018-05-25T09:50:54.713Z,19.1
2018-05-25T09:51:44.809Z,19.1
2018-05-25T09:52:35.156Z,19.1
2018-05-25T09:53:25.205Z,19.1
2018-05-25T09:54:14.969Z,19.1
2018-05-25T09:55:04.510Z,19.1
2018-05-25T09:55:55.119Z,19.1
2018-05-25T09:56:44.665Z,19.1
2018-05-25T09:57:34.969Z,19.1
2018-05-25T09:58:25.335Z,19.1
2018-05-25T09:59:14.315Z,19.1
2018-05-25T10:00:05.196Z,19.1
2018-05-25T10:00:54.735Z,19.1
2018-05-25T10:01:45.550Z,19.1
2018-05-25T10:02:35.039Z,19.1
2018-05-25T10:03:25.469Z,19.2
2018-05-25T10:04:15.501Z,19.1
2018-05-25T10:05:05.329Z,19.1
2018-05-25T10:05:55.784Z,19.1
2018-05-25T10:06:45.793Z,19.1
2018-05-25T10:07:35.439Z,19.1
2018-05-25T10:08:25.821Z,19.1
2018-05-25T10:09:15.896Z,19.1
2018-05-25T10:10:05.383Z,19.1
2018-05-25T10:10:55.450Z,19.1
2018-05-25T10:11:46.122Z,19.1
2018-05-25T10:12:35.831Z,19.1
2018-05-25T10:13:25.403Z,19.2
2018-05-25T10:14:16.303Z,19.1
2018-05-25T10:15:06.642Z,19.1
2018-05-25T10:15:56.445Z,19.1
2018-05-25T10:16:46.551Z,19.1
2018-05-25T10:17:36.284Z,19.1
2018-05-25T10:18:26.303Z,19.1
2018-05-25T10:19:15.783Z,19.1
2018-05-25T10:20:06.736Z,19.1
2018-05-25T10:20:56.892Z,19.1
2018-05-25T10:21:46.851Z,19.1
2018-05-25T10:22:36.661Z,19.1
2018-05-25T10:23:27.538Z,19.1
2018-05-25T10:24:16.844Z,19.2
2018-05-25T10:25:07.090Z,19.2
2018-05-25T10:25:57.168Z,19.1
2018-05-25T10:26:46.389Z,19.2
2018-05-25T10:27:37.577Z,19.2
2018-05-25T10:28:27.384Z,19.1
2018-05-25T10:29:17.647Z,19.1
2018-05-25T10:30:06.972Z,19.1
2018-05-25T10:30:58.082Z,19.2
2018-05-25T10:31:46.270Z,19.2
2018-05-25T10:32:37.213Z,19.1
2018-05-25T10:33:28.004Z,19.2
2018-05-25T10:34:18.125Z,19.2
2018-05-25T10:35:09.100Z,19.2
2018-05-25T10:35:58.218Z,19.2
2018-05-25T10:36:47.710Z,19.2
2018-05-25T10:37:38.632Z,19.2
2018-05-25T10:38:28.707Z,19.1
2018-05-25T10:39:17.386Z,19.2
2018-05-25T10:40:08.040Z,19.2
2018-05-25T10:40:58.945Z,19.2
2018-05-25T10:41:48.722Z,19.2
2018-05-25T10:42:38.714Z,19.2
2018-05-25T10:43:28.494Z,19.2
2018-05-25T10:44:18.879Z,19.2
2018-05-25T10:45:07.804Z,19.2
2018-05-25T10:45:58.777Z,19.2
2018-05-25T10:46:49.097Z,19.2
2018-05-25T10:47:38.810Z,19.2
2018-05-25T10:48:28.997Z,19.2
2018-05-25T10:49:17.819Z,19.2
2018-05-25T10:50:09.060Z,19.1
2018-05-25T10:50:59.329Z,19.2
2018-05-25T10:51:48.317Z,19.2
2018-05-25T10:52:39.516Z,19.2
2018-05-25T10:53:28.464Z,19.2
2018-05-25T10:54:19.646Z,19.2
2018-05-25T10:55:09.711Z,19.2
2018-05-25T10:55:59.343Z,19.2
2018-05-25T10:56:49.287Z,19.2
2018-05-25T10:57:39.299Z,19.2
2018-05-25T10:58:29.232Z,19.2
2018-05-25T10:59:19.489Z,19.2
2018-05-25T11:00:09.872Z,19.2
2018-05-25T11:01:00.204Z,19.2
2018-05-25T11:01:49.765Z,19.2
2018-05-25T11:02:39.700Z,19.2
2018-05-25T11:03:30.095Z,19.2
2018-05-25T11:04:19.361Z,19.2
2018-05-25T11:05:10.222Z,19.2
2018-05-25T11:05:59.719Z,19.2
2018-05-25T11:06:50.312Z,19.2
2018-05-25T11:07:40.956Z,19.2
2018-05-25T11:08:30.113Z,19.2
2018-05-25T11:09:20.518Z,19.2
2018-05-25T11:10:10.943Z,19.2
2018-05-25T11:11:00.319Z,19.2
2018-05-25T11:11:50.476Z,19.2
2018-05-25T11:12:41.334Z,19.2
2018-05-25T11:13:31.148Z,19.2
2018-05-25T11:14:21.443Z,19.2
2018-05-25T11:15:10.973Z,19.2
2018-05-25T11:16:01.570Z,19.2
2018-05-25T11:16:51.084Z,19.2
2018-05-25T11:17:40.926Z,19.2
2018-05-25T11:18:31.194Z,19.2
2018-05-25T11:19:21.584Z,19.2
2018-05-25T11:20:11.101Z,19.2
2018-05-25T11:21:02.144Z,19.2
2018-05-25T11:21:52.106Z,19.2
2018-05-25T11:22:42.106Z,19.2
2018-05-25T11:23:32.185Z,19.2
2018-05-25T11:24:21.702Z,19.2
2018-05-25T11:25:11.203Z,19.2
2018-05-25T11:26:02.078Z,19.2
2018-05-25T11:26:51.902Z,19.2
2018-05-25T11:27:42.267Z,19.2
2018-05-25T11:28:32.282Z,19.2
2018-05-25T11:29:22.025Z,19.2
2018-05-25T11:30:11.926Z,19.2
2018-05-25T11:31:01.663Z,19.2
2018-05-25T11:31:52.830Z,19.2
2018-05-25T11:32:42.355Z,19.2
2018-05-25T11:33:31.545Z,19.2
2018-05-25T11:34:22.525Z,19.2
2018-05-25T11:35:12.845Z,19.2
2018-05-25T11:36:02.883Z,19.2
2018-05-25T11:36:52.363Z,19.2
2018-05-25T11:37:41.860Z,19.2
2018-05-25T11:38:32.840Z,19.2
2018-05-25T11:39:22.281Z,19.2
2018-05-25T11:40:12.958Z,19.2
2018-05-25T11:41:02.725Z,19.2
2018-05-25T11:41:53.053Z,19.2
2018-05-25T11:42:43.137Z,19.2
2018-05-25T11:43:32.882Z,19.2
2018-05-25T11:44:23.810Z,19.2
2018-05-25T11:45:13.323Z,19.2
2018-05-25T11:46:03.392Z,19.2
2018-05-25T11:46:52.869Z,19.2
2018-05-25T11:47:43.234Z,19.2
2018-05-25T11:48:33.313Z,19.2
2018-05-25T11:49:23.359Z,19.2
2018-05-25T11:50:13.429Z,19.2
2018-05-25T11:51:04.364Z,19.2
2018-05-25T11:51:53.812Z,19.2
2018-05-25T11:52:44.194Z,19.2
2018-05-25T11:53:33.079Z,19.2
2018-05-25T11:54:23.452Z,19.2
2018-05-25T11:55:14.331Z,19.2
2018-05-25T11:56:04.694Z,19.2
2018-05-25T11:56:54.866Z,19.2
2018-05-25T11:57:44.586Z,19.2
2018-05-25T11:58:33.801Z,19.2
2018-05-25T11:59:24.115Z,19.3
2018-05-25T12:00:14.206Z,19.3
2018-05-25T12:01:05.088Z,19.3
2018-05-25T12:01:55.446Z,19.3
2018-05-25T12:02:44.650Z,19.2
2018-05-25T12:03:34.728Z,19.3
2018-05-25T12:04:25.059Z,19.3
2018-05-25T12:05:14.612Z,19.3
2018-05-25T12:06:04.930Z,19.3
2018-05-25T12:06:54.981Z,19.3
2018-05-25T12:07:45.029Z,19.3
2018-05-25T12:08:34.802Z,19.3
2018-05-25T12:09:25.553Z,19.3
2018-05-25T12:10:15.266Z,19.3
2018-05-25T12:11:05.366Z,19.3
2018-05-25T12:11:55.668Z,19.3
2018-05-25T12:12:44.645Z,19.2
2018-05-25T12:13:35.770Z,19.3
2018-05-25T12:14:25.821Z,19.3
2018-05-25T12:15:15.638Z,19.3
2018-05-25T12:16:05.968Z,19.3
2018-05-25T12:16:55.762Z,19.3
2018-05-25T12:17:46.073Z,19.3
2018-05-25T12:18:36.188Z,19.3
2018-05-25T12:19:26.462Z,19.3
2018-05-25T12:20:16.324Z,19.3
2018-05-25T12:21:06.129Z,19.3
2018-05-25T12:21:55.893Z,19.3
2018-05-25T12:22:46.201Z,19.3
2018-05-25T12:23:36.865Z,19.3
2018-05-25T12:24:26.942Z,19.3
2018-05-25T12:25:16.142Z,19.3
2018-05-25T12:26:04.365Z,19.3
2018-05-25T12:26:54.620Z,19.3
2018-05-25T12:27:45.211Z,19.3
2018-05-25T12:28:35.053Z,19.3
2018-05-25T12:29:24.806Z,19.3
2018-05-25T12:30:15.174Z,19.3
2018-05-25T12:31:05.232Z,19.3
2018-05-25T12:31:55.324Z,19.3
2018-05-25T12:32:43.673Z,19.3
2018-05-25T12:33:34.934Z,19.3
2018-05-25T12:34:24.934Z,19.3
2018-05-25T12:35:15.561Z,19.3
2018-05-25T12:36:05.897Z,19.3
2018-05-25T12:36:55.137Z,19.3
2018-05-25T12:37:45.639Z,19.3
2018-05-25T12:38:35.818Z,19.3
2018-05-25T12:39:26.174Z,19.3
2018-05-25T12:40:15.912Z,19.3
2018-05-25T12:41:06.013Z,19.3
2018-05-25T12:41:56.333Z,19.3
2018-05-25T12:42:46.435Z,19.3
2018-05-25T12:43:35.927Z,19.3
2018-05-25T12:44:26.543Z,19.3
2018-05-25T12:45:16.607Z,19.3
2018-05-25T12:46:06.158Z,19.3
2018-05-25T12:46:56.723Z,19.3
2018-05-25T12:47:46.304Z,19.3
2018-05-25T12:48:36.271Z,19.3
2018-05-25T12:49:26.714Z,19.3
2018-05-25T12:50:16.430Z,19.3
2018-05-25T12:51:06.794Z,19.3
2018-05-25T12:51:56.852Z,19.3
2018-05-25T12:52:46.913Z,19.3
2018-05-25T12:53:36.697Z,19.3
2018-05-25T12:54:28.213Z,19.3
2018-05-25T12:55:18.168Z,19.3
2018-05-25T12:56:09.139Z,19.3
2018-05-25T12:56:59.422Z,19.3
2018-05-25T12:57:48.937Z,19.3
2018-05-25T12:58:39.558Z,19.3
2018-05-25T12:59:29.379Z,19.3
2018-05-25T13:00:19.372Z,19.3
2018-05-25T13:01:09.172Z,19.3
2018-05-25T13:01:59.531Z,19.3
2018-05-25T13:02:49.873Z,19.3
2018-05-25T13:03:39.967Z,19.3
2018-05-25T13:04:29.706Z,19.3
2018-05-25T13:05:19.809Z,19.3
2018-05-25T13:06:09.849Z,19.4
2018-05-25T13:06:59.601Z,19.5
2018-05-25T13:07:50.023Z,19.6
2018-05-25T13:08:40.089Z,19.7
2018-05-25T13:09:29.358Z,19.8
2018-05-25T13:10:20.176Z,19.8
2018-05-25T13:11:08.306Z,19.8
2018-05-25T13:11:58.356Z,19.8
2018-05-25T13:12:47.857Z,19.8
2018-05-25T13:13:38.517Z,19.9
2018-05-25T13:14:28.555Z,19.9
2018-05-25T13:15:18.631Z,19.9
2018-05-25T13:16:08.667Z,19.9
2018-05-25T13:16:59.053Z,19.9
2018-05-25T13:17:49.089Z,19.9
2018-05-25T13:18:39.180Z,19.9
2018-05-25T13:19:28.976Z,19.9
2018-05-25T13:20:19.118Z,19.9
2018-05-25T13:21:09.356Z,19.9
2018-05-25T13:21:58.895Z,19.9
2018-05-25T13:22:48.707Z,19.9
2018-05-25T13:23:39.566Z,19.9
2018-05-25T13:24:29.656Z,19.9
2018-05-25T13:25:19.443Z,19.9
2018-05-25T13:26:08.653Z,19.9
2018-05-25T13:26:59.562Z,19.9
2018-05-25T13:27:49.607Z,19.9
2018-05-25T13:28:39.897Z,19.9
2018-05-25T13:29:30.019Z,19.9
2018-05-25T13:30:19.495Z,19.9
2018-05-25T13:31:09.840Z,19.9
2018-05-25T13:31:59.609Z,19.9
2018-05-25T13:32:49.434Z,19.9
2018-05-25T13:33:39.498Z,19.9
2018-05-25T13:34:29.833Z,19.9
2018-05-25T13:35:20.219Z,19.9
2018-05-25T13:36:09.964Z,19.8
2018-05-25T13:37:00.279Z,19.8
2018-05-25T13:37:49.836Z,19.9
2018-05-25T13:38:40.156Z,19.9
2018-05-25T13:39:30.871Z,19.9
2018-05-25T13:40:20.562Z,19.9
2018-05-25T13:41:10.065Z,19.9
2018-05-25T13:42:00.403Z,19.9
2018-05-25T13:42:51.046Z,19.9
2018-05-25T13:43:40.846Z,19.9
2018-05-25T13:44:30.873Z,19.9
2018-05-25T13:45:20.958Z,19.9
2018-05-25T13:46:11.011Z,19.9
2018-05-25T13:47:01.108Z,19.9
2018-05-25T13:47:51.436Z,19.9
2018-05-25T13:48:41.472Z,19.8
2018-05-25T13:49:30.994Z,19.9
2018-05-25T13:50:21.631Z,19.9
2018-05-25T13:51:11.419Z,19.9
2018-05-25T13:52:01.203Z,19.9
2018-05-25T13:52:51.574Z,19.9
2018-05-25T13:53:41.330Z,19.9
2018-05-25T13:54:31.397Z,19.9
2018-05-25T13:55:22.024Z,19.9
2018-05-25T13:56:11.804Z,19.9
2018-05-25T13:57:01.599Z,19.9
2018-05-25T13:57:51.912Z,19.9
2018-05-25T13:58:42.796Z,19.9
2018-05-25T13:59:32.039Z,19.9
2018-05-25T14:00:21.830Z,19.9
2018-05-25T14:01:12.454Z,19.9
2018-05-25T14:02:01.919Z,19.9
2018-05-25T14:02:52.027Z,19.9
2018-05-25T14:03:42.624Z,19.9
2018-05-25T14:04:32.508Z,19.9
2018-05-25T14:05:21.934Z,19.9
2018-05-25T14:06:13.012Z,19.9
2018-05-25T14:07:02.671Z,19.9
2018-05-25T14:07:52.691Z,19.9
2018-05-25T14:08:43.032Z,19.8
2018-05-25T14:09:32.834Z,19.9
2018-05-25T14:10:22.637Z,19.9
2018-05-25T14:11:12.680Z,19.9
2018-05-25T14:12:02.739Z,19.9
2018-05-25T14:12:52.861Z,19.9
2018-05-25T14:13:43.414Z,19.9
2018-05-25T14:14:33.200Z,19.9
2018-05-25T14:15:22.998Z,19.9
2018-05-25T14:16:13.313Z,19.9
2018-05-25T14:17:02.879Z,19.9
2018-05-25T14:17:53.719Z,19.9
2018-05-25T14:18:43.510Z,19.9
2018-05-25T14:19:33.934Z,19.9
2018-05-25T14:20:22.798Z,19.9
2018-05-25T14:21:13.724Z,19.9
2018-05-25T14:22:03.256Z,19.8
2018-05-25T14:22:53.567Z,19.9
2018-05-25T14:23:43.649Z,19.9
2018-05-25T14:24:33.149Z,19.9
2018-05-25T14:25:24.046Z,19.9
2018-05-25T14:26:14.153Z,19.9
2018-05-25T14:27:04.196Z,19.9
2018-05-25T14:27:53.965Z,19.8
2018-05-25T14:28:44.644Z,19.9
2018-05-25T14:29:34.387Z,19.9
2018-05-25T14:30:24.427Z,19.9
2018-05-25T14:31:14.497Z,19.8
2018-05-25T14:32:04.298Z,19.9
2018-05-25T14:32:54.345Z,19.9
2018-05-25T14:33:44.690Z,19.9
2018-05-25T14:34:34.723Z,19.9
2018-05-25T14:35:24.222Z,19.9
2018-05-25T14:36:14.857Z,19.9
2018-05-25T14:37:04.383Z,19.9
2018-05-25T14:37:54.264Z,19.9
2018-05-25T14:38:44.303Z,19.8
2018-05-25T14:39:35.403Z,19.9
2018-05-25T14:40:25.243Z,19.9
2018-05-25T14:41:14.473Z,19.9
2018-05-25T14:42:04.760Z,19.9
2018-05-25T14:42:55.703Z,19.8
2018-05-25T14:43:44.911Z,19.9
2018-05-25T14:44:34.949Z,19.9
2018-05-25T14:45:25.839Z,19.9
2018-05-25T14:46:15.108Z,19.9
2018-05-25T14:47:05.919Z,19.9
2018-05-25T14:47:56.019Z,19.9
2018-05-25T14:48:46.096Z,19.9
2018-05-25T14:49:35.591Z,19.9
2018-05-25T14:50:25.165Z,19.9
2018-05-25T14:51:16.075Z,19.9
2018-05-25T14:52:05.951Z,19.9
2018-05-25T14:52:55.890Z,19.9
2018-05-25T14:53:45.757Z,19.9
2018-05-25T14:54:35.770Z,19.9
2018-05-25T14:55:26.078Z,19.9
2018-05-25T14:56:16.717Z,19.9
2018-05-25T14:57:05.467Z,19.9
2018-05-25T14:57:57.127Z,19.9
2018-05-25T14:58:46.029Z,19.9
2018-05-25T14:59:36.931Z,19.9
2018-05-25T15:00:25.654Z,19.9
2018-05-25T15:01:16.271Z,19.9
2018-05-25T15:02:06.664Z,19.9
2018-05-25T15:02:57.255Z,19.9
2018-05-25T15:03:46.979Z,19.9
2018-05-25T15:04:36.795Z,19.9
2018-05-25T15:05:26.847Z,19.9
2018-05-25T15:06:17.262Z,19.9
2018-05-25T15:07:07.556Z,19.9
2018-05-25T15:07:57.308Z,19.9
2018-05-25T15:08:47.159Z,19.9
2018-05-25T15:09:37.256Z,19.9
2018-05-25T15:10:27.516Z,19.9
2018-05-25T15:11:17.252Z,19.9
2018-05-25T15:12:07.393Z,19.9
2018-05-25T15:12:57.145Z,19.9
2018-05-25T15:13:47.212Z,19.9
2018-05-25T15:14:38.074Z,19.9
2018-05-25T15:15:28.125Z,19.8
2018-05-25T15:16:16.837Z,19.9
2018-05-25T15:17:07.819Z,19.9
2018-05-25T15:17:58.081Z,19.9
2018-05-25T15:18:48.138Z,19.9
2018-05-25T15:19:37.959Z,19.9
2018-05-25T15:20:26.583Z,19.9
2018-05-25T15:21:18.581Z,19.9
2018-05-25T15:22:08.378Z,19.9
2018-05-25T15:22:58.755Z,19.9
2018-05-25T15:23:49.050Z,19.9
2018-05-25T15:24:38.610Z,19.9
2018-05-25T15:25:28.337Z,19.9
2018-05-25T15:26:18.996Z,19.9
2018-05-25T15:27:09.042Z,19.9
2018-05-25T15:27:58.836Z,19.9
2018-05-25T15:28:48.617Z,19.9
2018-05-25T15:29:39.723Z,19.9
2018-05-25T15:30:28.738Z,19.9
2018-05-25T15:31:19.123Z,19.9
2018-05-25T15:32:10.158Z,19.9
2018-05-25T15:32:58.952Z,19.9
2018-05-25T15:33:49.296Z,19.9
2018-05-25T15:34:38.766Z,19.9
2018-05-25T15:35:29.089Z,19.9
2018-05-25T15:36:19.456Z,20
2018-05-25T15:37:09.769Z,20
2018-05-25T15:37:59.558Z,20
2018-05-25T15:38:49.636Z,20
2018-05-25T15:39:39.178Z,20
2018-05-25T15:40:29.768Z,20
2018-05-25T15:41:19.826Z,20
2018-05-25T15:42:09.353Z,20
2018-05-25T15:43:00.007Z,20
2018-05-25T15:43:49.798Z,20.1
2018-05-25T15:44:39.785Z,20.1
2018-05-25T15:45:29.916Z,20
2018-05-25T15:46:20.769Z,20.1
2018-05-25T15:47:10.303Z,20.1
2018-05-25T15:47:59.772Z,20
2018-05-25T15:48:50.442Z,20.1
2018-05-25T15:49:40.731Z,20.1
2018-05-25T15:50:30.548Z,20.1
2018-05-25T15:51:20.937Z,20.1
2018-05-25T15:52:10.672Z,20.1
2018-05-25T15:53:00.815Z,20.1
2018-05-25T15:53:51.155Z,20.1
2018-05-25T15:54:40.909Z,20.1
2018-05-25T15:55:31.209Z,20.1
2018-05-25T15:56:21.507Z,20.1
2018-05-25T15:57:11.319Z,20.1
2018-05-25T15:58:00.907Z,20.1
2018-05-25T15:58:51.188Z,20.1
2018-05-25T15:59:41.538Z,20.1
2018-05-25T16:00:31.592Z,20.1
2018-05-25T16:01:20.836Z,20.1
2018-05-25T16:02:11.866Z,20.1
2018-05-25T16:03:01.245Z,20.1
2018-05-25T16:03:50.759Z,20.1
2018-05-25T16:04:41.937Z,20.1
2018-05-25T16:05:31.720Z,20.1
2018-05-25T16:06:22.081Z,20.1
2018-05-25T16:07:11.582Z,20.1
2018-05-25T16:08:01.380Z,20.1
2018-05-25T16:08:53.050Z,20.1
2018-05-25T16:09:42.022Z,20.1
2018-05-25T16:10:32.395Z,20.1
2018-05-25T16:11:22.170Z,20.1
2018-05-25T16:12:12.224Z,20.1
2018-05-25T16:13:01.738Z,20.1
2018-05-25T16:13:52.648Z,20.1
2018-05-25T16:14:42.687Z,20.1
2018-05-25T16:15:31.889Z,20.1
2018-05-25T16:16:22.828Z,20.1
2018-05-25T16:17:11.902Z,20.1
2018-05-25T16:18:03.057Z,20.1
2018-05-25T16:18:52.545Z,20.2
2018-05-25T16:19:43.018Z,20.1
2018-05-25T16:20:33.209Z,20.1
2018-05-25T16:21:22.989Z,20.1
2018-05-25T16:22:12.717Z,20.1
2018-05-25T16:23:03.345Z,20.1
2018-05-25T16:23:53.377Z,20.1
2018-05-25T16:24:42.854Z,20.1
2018-05-25T16:25:33.540Z,20.1
2018-05-25T16:26:23.591Z,20.1
2018-05-25T16:27:13.084Z,20.1
2018-05-25T16:28:03.468Z,20.1
2018-05-25T16:28:54.422Z,20.1
2018-05-25T16:29:43.556Z,20.1
2018-05-25T16:30:33.364Z,20.1
2018-05-25T16:31:23.973Z,20.1
2018-05-25T16:32:13.788Z,20.1
2018-05-25T16:33:04.113Z,20.1
2018-05-25T16:33:53.591Z,20.1
2018-05-25T16:34:43.955Z,20.1
2018-05-25T16:35:33.169Z,20.1
2018-05-25T16:36:23.558Z,20.1
2018-05-25T16:37:14.452Z,20.1
2018-05-25T16:38:04.193Z,20.1
2018-05-25T16:38:53.410Z,20.1
2018-05-25T16:39:44.086Z,20.1
2018-05-25T16:40:33.571Z,20.1
2018-05-25T16:41:24.265Z,20.2
2018-05-25T16:42:14.519Z,20.2
2018-05-25T16:43:04.584Z,20.2
2018-05-25T16:43:54.653Z,20.3
2018-05-25T16:44:45.008Z,20.2
2018-05-25T16:45:34.743Z,20.3
2018-05-25T16:46:24.858Z,20.3
2018-05-25T16:47:14.906Z,20.3
2018-05-25T16:48:05.242Z,20.3
2018-05-25T16:48:55.027Z,20.3
2018-05-25T16:49:44.562Z,20.3
2018-05-25T16:50:35.425Z,20.3
2018-05-25T16:51:25.219Z,20.3
2018-05-25T16:52:15.582Z,20.3
2018-05-25T16:53:04.787Z,20.2
2018-05-25T16:53:55.688Z,20.3
2018-05-25T16:54:44.367Z,20.2
2018-05-25T16:55:35.783Z,20.3
2018-05-25T16:56:25.883Z,20.2
2018-05-25T16:57:15.414Z,20.2
2018-05-25T16:58:05.476Z,20.2
2018-05-25T16:58:57.108Z,20.2
2018-05-25T16:59:45.616Z,20.2
2018-05-25T17:00:36.010Z,20.2
2018-05-25T17:01:25.788Z,20.2
2018-05-25T17:02:15.575Z,20.2
2018-05-25T17:03:06.442Z,20.2
2018-05-25T17:03:55.921Z,20.2
2018-05-25T17:04:46.538Z,20.2
2018-05-25T17:05:36.632Z,20.2
2018-05-25T17:06:26.367Z,20.2
2018-05-25T17:07:16.184Z,20.2
2018-05-25T17:08:06.239Z,20.2
2018-05-25T17:08:56.557Z,20.2
2018-05-25T17:09:46.648Z,20.2
2018-05-25T17:10:36.434Z,20.1
2018-05-25T17:11:27.027Z,20.1
2018-05-25T17:12:16.952Z,20.2
2018-05-25T17:13:06.330Z,20.2
2018-05-25T17:13:57.196Z,20.2
2018-05-25T17:14:46.145Z,20.2
2018-05-25T17:15:36.540Z,20.2
2018-05-25T17:16:27.167Z,20.3
2018-05-25T17:17:17.447Z,20.3
2018-05-25T17:18:07.547Z,20.3
2018-05-25T17:18:56.829Z,20.3
2018-05-25T17:19:47.360Z,20.3
2018-05-25T17:20:37.169Z,20.2
2018-05-25T17:21:27.537Z,20.3
2018-05-25T17:22:17.864Z,20.2
2018-05-25T17:23:07.392Z,20.2
2018-05-25T17:23:57.462Z,20.2
2018-05-25T17:24:47.520Z,20.2
2018-05-25T17:25:37.345Z,20.3
2018-05-25T17:26:27.935Z,20.3
2018-05-25T17:27:17.409Z,20.3
2018-05-25T17:28:08.366Z,20.3
2018-05-25T17:28:57.818Z,20.3
2018-05-25T17:29:48.166Z,20.3
2018-05-25T17:30:38.576Z,20.3
2018-05-25T17:31:27.865Z,20.3
2018-05-25T17:32:18.342Z,20.3
2018-05-25T17:33:07.922Z,20.3
2018-05-25T17:33:58.221Z,20.3
2018-05-25T17:34:48.517Z,20.3
2018-05-25T17:35:38.330Z,20.3
2018-05-25T17:36:28.661Z,20.3
2018-05-25T17:37:18.478Z,20.3
2018-05-25T17:38:08.257Z,20.3
2018-05-25T17:38:59.172Z,20.3
2018-05-25T17:39:48.675Z,20.3
2018-05-25T17:40:38.733Z,20.3
2018-05-25T17:41:28.797Z,20.3
2018-05-25T17:42:19.917Z,20.3
2018-05-25T17:43:09.485Z,20.3
2018-05-25T17:43:59.571Z,20.3
2018-05-25T17:44:49.056Z,20.3
2018-05-25T17:45:39.126Z,20.3
2018-05-25T17:46:29.781Z,20.3
2018-05-25T17:47:19.836Z,20.3
2018-05-25T17:48:09.871Z,20.3
2018-05-25T17:48:59.406Z,20.3
2018-05-25T17:49:49.159Z,20.3
2018-05-25T17:50:39.749Z,20.3
2018-05-25T17:51:29.906Z,20.3
2018-05-25T17:52:20.046Z,20.3
2018-05-25T17:53:08.866Z,20.3
2018-05-25T17:54:00.098Z,20.3
2018-05-25T17:54:49.607Z,20.3
2018-05-25T17:55:39.633Z,20.3
2018-05-25T17:56:29.393Z,20.3
2018-05-25T17:57:19.481Z,20.3
2018-05-25T17:58:09.491Z,20.3
2018-05-25T17:59:00.135Z,20.3
2018-05-25T17:59:50.499Z,20.3
2018-05-25T18:00:39.390Z,20.3
2018-05-25T18:01:30.574Z,20.3
2018-05-25T18:02:20.661Z,20.3
2018-05-25T18:03:11.657Z,20.3
2018-05-25T18:04:00.784Z,20.3
2018-05-25T18:04:50.896Z,20.3
2018-05-25T18:05:41.163Z,20.3
2018-05-25T18:06:30.977Z,20.3
2018-05-25T18:07:21.369Z,20.2
2018-05-25T18:08:11.414Z,20.2
2018-05-25T18:09:01.144Z,20.3
2018-05-25T18:09:51.504Z,20.3
2018-05-25T18:10:41.556Z,20.2
2018-05-25T18:11:30.806Z,20.3
2018-05-25T18:12:21.169Z,20.3
2018-05-25T18:13:11.499Z,20.3
2018-05-25T18:14:01.283Z,20.3
2018-05-25T18:14:51.338Z,20.2
2018-05-25T18:15:41.410Z,20.2
2018-05-25T18:16:31.475Z,20.3
2018-05-25T18:17:20.762Z,20.3
2018-05-25T18:18:11.333Z,20.2
2018-05-25T18:19:02.203Z,20.3
2018-05-25T18:19:51.700Z,20.2
2018-05-25T18:20:41.538Z,20.2
2018-05-25T18:21:31.834Z,20.2
2018-05-25T18:22:22.189Z,20.2
2018-05-25T18:23:11.971Z,20.2
2018-05-25T18:24:02.570Z,20.2
2018-05-25T18:24:51.804Z,20.2
2018-05-25T18:25:41.312Z,20.2
2018-05-25T18:26:31.680Z,20.2
2018-05-25T18:27:22.588Z,20.2
2018-05-25T18:28:12.629Z,20.1
2018-05-25T18:29:02.749Z,20.1
2018-05-25T18:29:52.205Z,20.1
2018-05-25T18:30:42.252Z,20.1
2018-05-25T18:31:32.630Z,20.1
2018-05-25T18:32:21.905Z,20.1
2018-05-25T18:33:12.721Z,20.1
2018-05-25T18:34:03.421Z,20.1
2018-05-25T18:34:53.173Z,20
2018-05-25T18:35:42.925Z,20.1
2018-05-25T18:36:33.336Z,20
2018-05-25T18:37:22.773Z,20.1